sensor_id;sensor_type;location;lat;lon;timestamp;P1;durP1;ratioP1;P2;durP2;ratioP2
8596;SDS011;4336;49.310;8.646;2022-09-29T00:00:35;12.47;;;6.43;;
8596;SDS011;4336;49.310;8.646;2022-09-29T00:03:02;9.57;;;6.50;;
8596;SDS011;4336;49.310;8.646;2022-09-29T00:05:28;7.50;;;6.07;;
8596;SDS011;4336;49.310;8.646;2022-09-29T00:07:55;9.90;;;6.27;;
8596;SDS011;4336;49.310;8.646;2022-09-29T00:10:21;6.33;;;5.73;;
8596;SDS011;4336;49.310;8.646;2022-09-29T00:12:48;7.07;;;6.43;;
8596;SDS011;4336;49.310;8.646;2022-09-29T00:15:14;11.40;;;6.23;;
8596;SDS011;4336;49.310;8.646;2022-09-29T00:17:40;7.17;;;6.47;;
8596;SDS011;4336;49.310;8.646;2022-09-29T00:20:06;7.73;;;6.60;;
8596;SDS011;4336;49.310;8.646;2022-09-29T00:22:33;9.20;;;7.13;;
8596;SDS011;4336;49.310;8.646;2022-09-29T00:24:59;9.63;;;6.90;;
8596;SDS011;4336;49.310;8.646;2022-09-29T00:27:25;6.87;;;6.17;;
8596;SDS011;4336;49.310;8.646;2022-09-29T00:29:51;7.00;;;6.40;;
8596;SDS011;4336;49.310;8.646;2022-09-29T00:32:17;7.67;;;6.80;;
8596;SDS011;4336;49.310;8.646;2022-09-29T00:34:44;11.50;;;8.20;;
8596;SDS011;4336;49.310;8.646;2022-09-29T00:37:10;13.43;;;7.63;;
8596;SDS011;4336;49.310;8.646;2022-09-29T00:39:36;7.43;;;6.67;;
8596;SDS011;4336;49.310;8.646;2022-09-29T00:42:03;7.77;;;6.93;;
8596;SDS011;4336;49.310;8.646;2022-09-29T00:47:15;6.67;;;6.07;;
8596;SDS011;4336;49.310;8.646;2022-09-29T00:49:44;7.20;;;6.50;;
8596;SDS011;4336;49.310;8.646;2022-09-29T00:52:24;6.87;;;6.27;;
8596;SDS011;4336;49.310;8.646;2022-09-29T00:54:54;8.50;;;6.60;;
8596;SDS011;4336;49.310;8.646;2022-09-29T00:57:28;7.50;;;6.40;;
8596;SDS011;4336;49.310;8.646;2022-09-29T01:00:04;7.57;;;6.27;;
8596;SDS011;4336;49.310;8.646;2022-09-29T01:02:32;7.13;;;6.40;;
8596;SDS011;4336;49.310;8.646;2022-09-29T01:04:59;7.63;;;6.83;;
8596;SDS011;4336;49.310;8.646;2022-09-29T01:07:27;10.97;;;6.70;;
8596;SDS011;4336;49.310;8.646;2022-09-29T01:09:54;7.63;;;6.83;;
8596;SDS011;4336;49.310;8.646;2022-09-29T01:12:21;9.37;;;6.80;;
8596;SDS011;4336;49.310;8.646;2022-09-29T01:14:48;7.57;;;6.03;;
8596;SDS011;4336;49.310;8.646;2022-09-29T01:17:15;8.67;;;6.23;;
8596;SDS011;4336;49.310;8.646;2022-09-29T01:19:54;8.27;;;6.07;;
8596;SDS011;4336;49.310;8.646;2022-09-29T01:30:39;8.53;;;6.40;;
8596;SDS011;4336;49.310;8.646;2022-09-29T01:33:18;6.57;;;5.90;;
8596;SDS011;4336;49.310;8.646;2022-09-29T01:38:30;7.27;;;6.57;;
8596;SDS011;4336;49.310;8.646;2022-09-29T01:43:34;12.67;;;6.80;;
8596;SDS011;4336;49.310;8.646;2022-09-29T01:46:06;10.83;;;7.10;;
8596;SDS011;4336;49.310;8.646;2022-09-29T01:48:39;7.63;;;6.53;;
8596;SDS011;4336;49.310;8.646;2022-09-29T01:51:11;7.07;;;6.20;;
8596;SDS011;4336;49.310;8.646;2022-09-29T01:53:41;6.43;;;5.83;;
8596;SDS011;4336;49.310;8.646;2022-09-29T01:56:12;6.90;;;6.20;;
8596;SDS011;4336;49.310;8.646;2022-09-29T01:58:46;9.17;;;7.33;;
8596;SDS011;4336;49.310;8.646;2022-09-29T02:01:13;11.47;;;7.00;;
8596;SDS011;4336;49.310;8.646;2022-09-29T02:06:09;7.10;;;6.40;;
8596;SDS011;4336;49.310;8.646;2022-09-29T02:08:38;7.80;;;7.00;;
8596;SDS011;4336;49.310;8.646;2022-09-29T02:11:09;8.67;;;6.90;;
8596;SDS011;4336;49.310;8.646;2022-09-29T02:16:25;8.70;;;7.07;;
8596;SDS011;4336;49.310;8.646;2022-09-29T02:18:58;7.80;;;6.27;;
8596;SDS011;4336;49.310;8.646;2022-09-29T02:21:25;9.60;;;7.03;;
8596;SDS011;4336;49.310;8.646;2022-09-29T02:23:52;8.67;;;7.57;;
8596;SDS011;4336;49.310;8.646;2022-09-29T02:26:19;9.53;;;6.57;;
8596;SDS011;4336;49.310;8.646;2022-09-29T02:28:45;11.57;;;7.13;;
8596;SDS011;4336;49.310;8.646;2022-09-29T02:31:12;10.00;;;7.20;;
8596;SDS011;4336;49.310;8.646;2022-09-29T02:33:39;11.10;;;7.03;;
8596;SDS011;4336;49.310;8.646;2022-09-29T02:38:38;13.57;;;7.10;;
8596;SDS011;4336;49.310;8.646;2022-09-29T02:43:51;8.60;;;7.20;;
8596;SDS011;4336;49.310;8.646;2022-09-29T02:46:26;8.30;;;6.90;;
8596;SDS011;4336;49.310;8.646;2022-09-29T02:51:40;7.80;;;7.10;;
8596;SDS011;4336;49.310;8.646;2022-09-29T02:56:48;7.70;;;6.80;;
8596;SDS011;4336;49.310;8.646;2022-09-29T02:59:17;9.33;;;6.60;;
8596;SDS011;4336;49.310;8.646;2022-09-29T03:01:47;14.63;;;6.90;;
8596;SDS011;4336;49.310;8.646;2022-09-29T03:04:14;11.23;;;7.30;;
8596;SDS011;4336;49.310;8.646;2022-09-29T03:06:40;12.87;;;6.90;;
8596;SDS011;4336;49.310;8.646;2022-09-29T03:09:06;7.67;;;6.87;;
8596;SDS011;4336;49.310;8.646;2022-09-29T03:11:32;8.20;;;7.40;;
8596;SDS011;4336;49.310;8.646;2022-09-29T03:13:59;7.37;;;6.67;;
8596;SDS011;4336;49.310;8.646;2022-09-29T03:16:25;10.77;;;6.50;;
8596;SDS011;4336;49.310;8.646;2022-09-29T03:18:51;9.20;;;7.53;;
8596;SDS011;4336;49.310;8.646;2022-09-29T03:21:17;8.27;;;7.47;;
8596;SDS011;4336;49.310;8.646;2022-09-29T03:23:43;10.07;;;7.40;;
8596;SDS011;4336;49.310;8.646;2022-09-29T03:26:09;8.00;;;7.20;;
8596;SDS011;4336;49.310;8.646;2022-09-29T03:28:35;12.57;;;6.80;;
8596;SDS011;4336;49.310;8.646;2022-09-29T03:31:05;9.53;;;7.67;;
8596;SDS011;4336;49.310;8.646;2022-09-29T03:33:31;10.67;;;7.63;;
8596;SDS011;4336;49.310;8.646;2022-09-29T03:35:58;8.23;;;7.23;;
8596;SDS011;4336;49.310;8.646;2022-09-29T03:38:24;9.13;;;7.80;;
8596;SDS011;4336;49.310;8.646;2022-09-29T03:40:50;8.27;;;6.87;;
8596;SDS011;4336;49.310;8.646;2022-09-29T03:43:16;8.90;;;7.17;;
8596;SDS011;4336;49.310;8.646;2022-09-29T03:45:49;9.43;;;7.77;;
8596;SDS011;4336;49.310;8.646;2022-09-29T03:48:16;10.43;;;7.27;;
8596;SDS011;4336;49.310;8.646;2022-09-29T03:50:43;9.23;;;7.53;;
8596;SDS011;4336;49.310;8.646;2022-09-29T03:53:09;8.20;;;6.80;;
8596;SDS011;4336;49.310;8.646;2022-09-29T03:55:35;9.33;;;7.63;;
8596;SDS011;4336;49.310;8.646;2022-09-29T03:58:01;10.77;;;7.80;;
8596;SDS011;4336;49.310;8.646;2022-09-29T04:00:27;8.83;;;7.93;;
8596;SDS011;4336;49.310;8.646;2022-09-29T04:02:54;7.20;;;6.50;;
8596;SDS011;4336;49.310;8.646;2022-09-29T04:05:20;11.87;;;8.13;;
8596;SDS011;4336;49.310;8.646;2022-09-29T04:07:46;9.07;;;7.80;;
8596;SDS011;4336;49.310;8.646;2022-09-29T04:10:12;8.33;;;7.43;;
8596;SDS011;4336;49.310;8.646;2022-09-29T04:12:39;8.63;;;6.57;;
8596;SDS011;4336;49.310;8.646;2022-09-29T04:15:05;9.07;;;7.53;;
8596;SDS011;4336;49.310;8.646;2022-09-29T04:17:32;12.77;;;6.87;;
8596;SDS011;4336;49.310;8.646;2022-09-29T04:19:58;10.47;;;7.60;;
8596;SDS011;4336;49.310;8.646;2022-09-29T04:22:24;9.77;;;7.23;;
8596;SDS011;4336;49.310;8.646;2022-09-29T04:24:50;8.80;;;7.10;;
8596;SDS011;4336;49.310;8.646;2022-09-29T04:27:17;10.80;;;7.97;;
8596;SDS011;4336;49.310;8.646;2022-09-29T04:29:43;8.13;;;7.43;;
8596;SDS011;4336;49.310;8.646;2022-09-29T04:32:09;8.73;;;7.40;;
8596;SDS011;4336;49.310;8.646;2022-09-29T04:34:35;9.00;;;7.00;;
8596;SDS011;4336;49.310;8.646;2022-09-29T04:37:02;8.73;;;7.70;;
8596;SDS011;4336;49.310;8.646;2022-09-29T04:39:28;11.23;;;8.03;;
8596;SDS011;4336;49.310;8.646;2022-09-29T04:41:54;9.63;;;6.77;;
8596;SDS011;4336;49.310;8.646;2022-09-29T04:44:20;7.87;;;7.10;;
8596;SDS011;4336;49.310;8.646;2022-09-29T04:46:51;7.93;;;7.13;;
8596;SDS011;4336;49.310;8.646;2022-09-29T04:49:18;8.00;;;7.20;;
8596;SDS011;4336;49.310;8.646;2022-09-29T04:51:44;9.37;;;7.30;;
8596;SDS011;4336;49.310;8.646;2022-09-29T04:54:10;9.27;;;7.63;;
8596;SDS011;4336;49.310;8.646;2022-09-29T04:56:36;9.67;;;8.03;;
8596;SDS011;4336;49.310;8.646;2022-09-29T04:59:02;11.47;;;7.43;;
8596;SDS011;4336;49.310;8.646;2022-09-29T05:01:29;10.93;;;7.33;;
8596;SDS011;4336;49.310;8.646;2022-09-29T05:03:55;9.70;;;7.53;;
8596;SDS011;4336;49.310;8.646;2022-09-29T05:06:21;8.17;;;6.90;;
8596;SDS011;4336;49.310;8.646;2022-09-29T05:08:47;9.63;;;7.93;;
8596;SDS011;4336;49.310;8.646;2022-09-29T05:11:13;8.17;;;6.83;;
8596;SDS011;4336;49.310;8.646;2022-09-29T05:13:40;9.67;;;7.03;;
8596;SDS011;4336;49.310;8.646;2022-09-29T05:16:06;8.20;;;6.77;;
8596;SDS011;4336;49.310;8.646;2022-09-29T05:18:32;7.97;;;7.17;;
8596;SDS011;4336;49.310;8.646;2022-09-29T05:21:05;8.13;;;7.33;;
8596;SDS011;4336;49.310;8.646;2022-09-29T05:23:32;9.07;;;7.37;;
8596;SDS011;4336;49.310;8.646;2022-09-29T05:26:02;8.03;;;6.70;;
8596;SDS011;4336;49.310;8.646;2022-09-29T05:28:28;10.57;;;7.83;;
8596;SDS011;4336;49.310;8.646;2022-09-29T05:30:54;8.23;;;7.13;;
8596;SDS011;4336;49.310;8.646;2022-09-29T05:33:25;8.97;;;7.30;;
8596;SDS011;4336;49.310;8.646;2022-09-29T05:35:51;9.93;;;7.67;;
8596;SDS011;4336;49.310;8.646;2022-09-29T05:38:17;9.93;;;6.57;;
8596;SDS011;4336;49.310;8.646;2022-09-29T05:40:43;9.70;;;7.13;;
8596;SDS011;4336;49.310;8.646;2022-09-29T05:43:09;11.17;;;6.73;;
8596;SDS011;4336;49.310;8.646;2022-09-29T05:45:35;8.53;;;7.63;;
8596;SDS011;4336;49.310;8.646;2022-09-29T05:48:02;9.03;;;7.13;;
8596;SDS011;4336;49.310;8.646;2022-09-29T05:50:28;11.70;;;7.23;;
8596;SDS011;4336;49.310;8.646;2022-09-29T05:52:55;7.87;;;7.07;;
8596;SDS011;4336;49.310;8.646;2022-09-29T05:55:22;11.70;;;7.70;;
8596;SDS011;4336;49.310;8.646;2022-09-29T05:57:48;11.43;;;7.30;;
8596;SDS011;4336;49.310;8.646;2022-09-29T06:00:14;8.13;;;7.23;;
8596;SDS011;4336;49.310;8.646;2022-09-29T06:02:40;8.10;;;7.30;;
8596;SDS011;4336;49.310;8.646;2022-09-29T06:05:06;9.47;;;7.37;;
8596;SDS011;4336;49.310;8.646;2022-09-29T06:07:33;8.60;;;7.80;;
8596;SDS011;4336;49.310;8.646;2022-09-29T06:09:59;9.13;;;7.37;;
8596;SDS011;4336;49.310;8.646;2022-09-29T06:12:25;10.13;;;6.73;;
8596;SDS011;4336;49.310;8.646;2022-09-29T06:14:51;9.27;;;6.77;;
8596;SDS011;4336;49.310;8.646;2022-09-29T06:17:17;6.90;;;6.20;;
8596;SDS011;4336;49.310;8.646;2022-09-29T06:19:43;11.07;;;7.60;;
8596;SDS011;4336;49.310;8.646;2022-09-29T06:22:09;9.70;;;7.37;;
8596;SDS011;4336;49.310;8.646;2022-09-29T06:24:35;8.60;;;6.73;;
8596;SDS011;4336;49.310;8.646;2022-09-29T06:27:02;11.20;;;7.60;;
8596;SDS011;4336;49.310;8.646;2022-09-29T06:29:28;7.10;;;6.07;;
8596;SDS011;4336;49.310;8.646;2022-09-29T06:31:53;9.27;;;6.60;;
8596;SDS011;4336;49.310;8.646;2022-09-29T06:34:19;9.77;;;6.67;;
8596;SDS011;4336;49.310;8.646;2022-09-29T06:36:45;13.40;;;7.07;;
8596;SDS011;4336;49.310;8.646;2022-09-29T06:39:30;6.73;;;6.13;;
8596;SDS011;4336;49.310;8.646;2022-09-29T06:41:56;7.47;;;6.37;;
8596;SDS011;4336;49.310;8.646;2022-09-29T06:44:24;11.90;;;7.20;;
8596;SDS011;4336;49.310;8.646;2022-09-29T06:46:52;16.57;;;8.23;;
8596;SDS011;4336;49.310;8.646;2022-09-29T06:49:18;9.00;;;7.70;;
8596;SDS011;4336;49.310;8.646;2022-09-29T06:51:45;9.40;;;6.50;;
8596;SDS011;4336;49.310;8.646;2022-09-29T06:54:15;10.27;;;7.10;;
8596;SDS011;4336;49.310;8.646;2022-09-29T06:56:42;9.20;;;6.77;;
8596;SDS011;4336;49.310;8.646;2022-09-29T06:59:11;7.60;;;6.80;;
8596;SDS011;4336;49.310;8.646;2022-09-29T07:01:37;9.50;;;6.20;;
8596;SDS011;4336;49.310;8.646;2022-09-29T07:04:03;6.83;;;5.43;;
8596;SDS011;4336;49.310;8.646;2022-09-29T07:06:29;11.23;;;7.20;;
8596;SDS011;4336;49.310;8.646;2022-09-29T07:08:56;12.80;;;7.67;;
8596;SDS011;4336;49.310;8.646;2022-09-29T07:11:22;9.17;;;7.37;;
8596;SDS011;4336;49.310;8.646;2022-09-29T07:13:52;7.53;;;6.50;;
8596;SDS011;4336;49.310;8.646;2022-09-29T07:16:18;7.10;;;6.13;;
8596;SDS011;4336;49.310;8.646;2022-09-29T07:18:47;7.83;;;6.47;;
8596;SDS011;4336;49.310;8.646;2022-09-29T07:21:14;6.97;;;6.37;;
8596;SDS011;4336;49.310;8.646;2022-09-29T07:23:43;9.27;;;6.60;;
8596;SDS011;4336;49.310;8.646;2022-09-29T07:26:10;9.07;;;6.90;;
8596;SDS011;4336;49.310;8.646;2022-09-29T07:28:36;8.67;;;5.77;;
8596;SDS011;4336;49.310;8.646;2022-09-29T07:31:04;9.73;;;6.40;;
8596;SDS011;4336;49.310;8.646;2022-09-29T07:33:31;7.63;;;6.53;;
8596;SDS011;4336;49.310;8.646;2022-09-29T07:35:58;12.37;;;8.10;;
8596;SDS011;4336;49.310;8.646;2022-09-29T07:38:25;9.70;;;7.00;;
8596;SDS011;4336;49.310;8.646;2022-09-29T07:40:51;7.67;;;6.90;;
8596;SDS011;4336;49.310;8.646;2022-09-29T07:43:17;7.43;;;6.30;;
8596;SDS011;4336;49.310;8.646;2022-09-29T07:45:44;9.00;;;6.90;;
8596;SDS011;4336;49.310;8.646;2022-09-29T07:48:11;8.07;;;6.77;;
8596;SDS011;4336;49.310;8.646;2022-09-29T07:50:39;8.33;;;7.07;;
8596;SDS011;4336;49.310;8.646;2022-09-29T07:53:06;9.07;;;6.70;;
8596;SDS011;4336;49.310;8.646;2022-09-29T07:55:32;9.90;;;6.77;;
8596;SDS011;4336;49.310;8.646;2022-09-29T07:57:58;8.50;;;7.03;;
8596;SDS011;4336;49.310;8.646;2022-09-29T08:00:26;9.30;;;6.60;;
8596;SDS011;4336;49.310;8.646;2022-09-29T08:02:52;8.43;;;7.13;;
8596;SDS011;4336;49.310;8.646;2022-09-29T08:05:18;7.90;;;7.10;;
8596;SDS011;4336;49.310;8.646;2022-09-29T08:07:44;8.43;;;6.57;;
8596;SDS011;4336;49.310;8.646;2022-09-29T08:10:15;8.20;;;7.40;;
8596;SDS011;4336;49.310;8.646;2022-09-29T08:12:41;8.53;;;6.60;;
8596;SDS011;4336;49.310;8.646;2022-09-29T08:15:07;7.77;;;6.87;;
8596;SDS011;4336;49.310;8.646;2022-09-29T08:17:34;11.87;;;6.47;;
8596;SDS011;4336;49.310;8.646;2022-09-29T08:20:00;7.90;;;7.03;;
8596;SDS011;4336;49.310;8.646;2022-09-29T08:22:26;9.80;;;6.73;;
8596;SDS011;4336;49.310;8.646;2022-09-29T08:24:52;9.27;;;6.70;;
8596;SDS011;4336;49.310;8.646;2022-09-29T08:27:18;9.37;;;7.00;;
8596;SDS011;4336;49.310;8.646;2022-09-29T08:29:45;12.93;;;7.10;;
8596;SDS011;4336;49.310;8.646;2022-09-29T08:32:11;15.33;;;7.43;;
8596;SDS011;4336;49.310;8.646;2022-09-29T08:34:38;6.73;;;6.03;;
8596;SDS011;4336;49.310;8.646;2022-09-29T08:37:04;6.47;;;5.83;;
8596;SDS011;4336;49.310;8.646;2022-09-29T08:39:30;8.60;;;7.00;;
8596;SDS011;4336;49.310;8.646;2022-09-29T08:42:01;14.17;;;6.00;;
8596;SDS011;4336;49.310;8.646;2022-09-29T08:49:42;6.27;;;5.67;;
8596;SDS011;4336;49.310;8.646;2022-09-29T08:52:10;8.17;;;6.43;;
8596;SDS011;4336;49.310;8.646;2022-09-29T08:54:41;11.53;;;6.47;;
8596;SDS011;4336;49.310;8.646;2022-09-29T08:57:16;6.77;;;6.07;;
8596;SDS011;4336;49.310;8.646;2022-09-29T08:59:56;6.27;;;5.50;;
8596;SDS011;4336;49.310;8.646;2022-09-29T09:07:43;10.90;;;6.77;;
8596;SDS011;4336;49.310;8.646;2022-09-29T09:10:37;7.03;;;6.33;;
8596;SDS011;4336;49.310;8.646;2022-09-29T09:13:08;9.23;;;6.10;;
8596;SDS011;4336;49.310;8.646;2022-09-29T09:21:19;7.13;;;6.43;;
8596;SDS011;4336;49.310;8.646;2022-09-29T09:26:55;7.67;;;6.13;;
8596;SDS011;4336;49.310;8.646;2022-09-29T09:32:03;6.70;;;6.10;;
8596;SDS011;4336;49.310;8.646;2022-09-29T09:34:41;8.27;;;6.10;;
8596;SDS011;4336;49.310;8.646;2022-09-29T09:37:12;7.03;;;6.30;;
8596;SDS011;4336;49.310;8.646;2022-09-29T09:39:52;6.80;;;5.43;;
8596;SDS011;4336;49.310;8.646;2022-09-29T09:42:24;10.20;;;6.27;;
8596;SDS011;4336;49.310;8.646;2022-09-29T09:44:51;6.70;;;6.00;;
8596;SDS011;4336;49.310;8.646;2022-09-29T09:47:23;7.97;;;6.00;;
8596;SDS011;4336;49.310;8.646;2022-09-29T09:50:00;5.63;;;5.13;;
8596;SDS011;4336;49.310;8.646;2022-09-29T09:52:39;6.27;;;5.77;;
8596;SDS011;4336;49.310;8.646;2022-09-29T09:55:09;8.67;;;6.77;;
8596;SDS011;4336;49.310;8.646;2022-09-29T09:57:44;6.00;;;5.50;;
8596;SDS011;4336;49.310;8.646;2022-09-29T10:00:25;7.27;;;5.93;;
8596;SDS011;4336;49.310;8.646;2022-09-29T10:02:55;9.53;;;6.87;;
8596;SDS011;4336;49.310;8.646;2022-09-29T10:05:22;10.33;;;6.87;;
8596;SDS011;4336;49.310;8.646;2022-09-29T10:07:50;8.57;;;6.53;;
8596;SDS011;4336;49.310;8.646;2022-09-29T10:10:21;8.33;;;5.93;;
8596;SDS011;4336;49.310;8.646;2022-09-29T10:12:56;13.50;;;6.37;;
8596;SDS011;4336;49.310;8.646;2022-09-29T10:18:16;6.20;;;5.40;;
8596;SDS011;4336;49.310;8.646;2022-09-29T10:20:47;6.83;;;5.87;;
8596;SDS011;4336;49.310;8.646;2022-09-29T10:23:26;4.70;;;4.23;;
8596;SDS011;4336;49.310;8.646;2022-09-29T10:25:58;6.87;;;4.87;;
8596;SDS011;4336;49.310;8.646;2022-09-29T10:31:30;9.13;;;5.03;;
8596;SDS011;4336;49.310;8.646;2022-09-29T10:34:18;5.40;;;4.50;;
8596;SDS011;4336;49.310;8.646;2022-09-29T10:36:51;9.70;;;5.63;;
8596;SDS011;4336;49.310;8.646;2022-09-29T10:41:56;8.60;;;6.40;;
8596;SDS011;4336;49.310;8.646;2022-09-29T10:44:22;7.90;;;5.70;;
8596;SDS011;4336;49.310;8.646;2022-09-29T10:46:52;12.13;;;5.97;;
8596;SDS011;4336;49.310;8.646;2022-09-29T10:49:22;7.63;;;5.23;;
8596;SDS011;4336;49.310;8.646;2022-09-29T10:52:02;11.17;;;6.63;;
8596;SDS011;4336;49.310;8.646;2022-09-29T10:54:30;14.10;;;5.70;;
8596;SDS011;4336;49.310;8.646;2022-09-29T10:56:57;5.70;;;5.20;;
8596;SDS011;4336;49.310;8.646;2022-09-29T10:59:24;9.13;;;6.47;;
8596;SDS011;4336;49.310;8.646;2022-09-29T11:01:51;8.97;;;5.90;;
8596;SDS011;4336;49.310;8.646;2022-09-29T11:06:53;10.17;;;7.27;;
8596;SDS011;4336;49.310;8.646;2022-09-29T11:14:30;6.03;;;5.43;;
8596;SDS011;4336;49.310;8.646;2022-09-29T11:17:18;5.43;;;4.93;;
8596;SDS011;4336;49.310;8.646;2022-09-29T11:19:53;10.63;;;5.70;;
8596;SDS011;4336;49.310;8.646;2022-09-29T11:22:37;8.60;;;6.37;;
8596;SDS011;4336;49.310;8.646;2022-09-29T11:25:17;7.47;;;5.43;;
8596;SDS011;4336;49.310;8.646;2022-09-29T11:30:23;6.00;;;5.40;;
8596;SDS011;4336;49.310;8.646;2022-09-29T11:35:57;6.30;;;5.70;;
8596;SDS011;4336;49.310;8.646;2022-09-29T11:44:35;6.47;;;5.87;;
8596;SDS011;4336;49.310;8.646;2022-09-29T11:50:22;9.43;;;7.37;;
8596;SDS011;4336;49.310;8.646;2022-09-29T11:53:04;7.73;;;5.27;;
8596;SDS011;4336;49.310;8.646;2022-09-29T11:55:34;7.20;;;6.10;;
8596;SDS011;4336;49.310;8.646;2022-09-29T12:03:51;7.13;;;5.17;;
8596;SDS011;4336;49.310;8.646;2022-09-29T12:11:52;5.40;;;4.50;;
8596;SDS011;4336;49.310;8.646;2022-09-29T12:14:37;4.93;;;4.50;;
8596;SDS011;4336;49.310;8.646;2022-09-29T12:17:17;11.60;;;6.20;;
8596;SDS011;4336;49.310;8.646;2022-09-29T12:19:44;6.20;;;5.40;;
8596;SDS011;4336;49.310;8.646;2022-09-29T12:22:16;7.70;;;4.90;;
8596;SDS011;4336;49.310;8.646;2022-09-29T12:24:47;8.87;;;5.57;;
8596;SDS011;4336;49.310;8.646;2022-09-29T12:29:49;5.40;;;4.90;;
8596;SDS011;4336;49.310;8.646;2022-09-29T12:34:53;6.23;;;5.13;;
8596;SDS011;4336;49.310;8.646;2022-09-29T12:40:27;5.30;;;4.80;;
8596;SDS011;4336;49.310;8.646;2022-09-29T12:43:07;4.80;;;4.40;;
8596;SDS011;4336;49.310;8.646;2022-09-29T12:53:44;5.00;;;4.60;;
8596;SDS011;4336;49.310;8.646;2022-09-29T12:56:22;7.90;;;5.70;;
8596;SDS011;4336;49.310;8.646;2022-09-29T13:01:24;5.30;;;4.80;;
8596;SDS011;4336;49.310;8.646;2022-09-29T13:09:36;7.70;;;5.57;;
8596;SDS011;4336;49.310;8.646;2022-09-29T13:14:59;11.67;;;5.90;;
8596;SDS011;4336;49.310;8.646;2022-09-29T13:17:35;11.20;;;7.93;;
8596;SDS011;4336;49.310;8.646;2022-09-29T13:29:13;8.03;;;5.97;;
8596;SDS011;4336;49.310;8.646;2022-09-29T13:31:48;6.83;;;5.97;;
8596;SDS011;4336;49.310;8.646;2022-09-29T13:34:28;7.10;;;6.50;;
8596;SDS011;4336;49.310;8.646;2022-09-29T13:37:34;7.83;;;6.50;;
8596;SDS011;4336;49.310;8.646;2022-09-29T13:39:51;6.30;;;5.37;;
8596;SDS011;4336;49.310;8.646;2022-09-29T13:42:37;8.37;;;5.97;;
8596;SDS011;4336;49.310;8.646;2022-09-29T13:47:47;5.90;;;5.33;;
8596;SDS011;4336;49.310;8.646;2022-09-29T13:55:53;7.33;;;6.63;;
8596;SDS011;4336;49.310;8.646;2022-09-29T13:58:33;7.80;;;6.30;;
8596;SDS011;4336;49.310;8.646;2022-09-29T14:01:01;7.93;;;6.10;;
8596;SDS011;4336;49.310;8.646;2022-09-29T14:03:33;11.97;;;6.47;;
8596;SDS011;4336;49.310;8.646;2022-09-29T14:09:12;5.60;;;5.10;;
8596;SDS011;4336;49.310;8.646;2022-09-29T14:11:42;5.40;;;4.90;;
8596;SDS011;4336;49.310;8.646;2022-09-29T14:14:21;5.50;;;5.10;;
8596;SDS011;4336;49.310;8.646;2022-09-29T14:19:41;6.60;;;5.90;;
8596;SDS011;4336;49.310;8.646;2022-09-29T14:27:30;6.93;;;5.57;;
8596;SDS011;4336;49.310;8.646;2022-09-29T14:30:05;5.53;;;5.13;;
8596;SDS011;4336;49.310;8.646;2022-09-29T14:35:19;6.10;;;5.50;;
8596;SDS011;4336;49.310;8.646;2022-09-29T14:40:29;11.97;;;5.83;;
8596;SDS011;4336;49.310;8.646;2022-09-29T14:43:07;8.17;;;6.67;;
8596;SDS011;4336;49.310;8.646;2022-09-29T14:45:40;7.83;;;5.93;;
8596;SDS011;4336;49.310;8.646;2022-09-29T14:48:34;7.23;;;6.53;;
8596;SDS011;4336;49.310;8.646;2022-09-29T14:51:35;5.90;;;5.40;;
8596;SDS011;4336;49.310;8.646;2022-09-29T14:54:33;5.70;;;5.20;;
8596;SDS011;4336;49.310;8.646;2022-09-29T15:02:45;4.90;;;4.50;;
8596;SDS011;4336;49.310;8.646;2022-09-29T15:05:20;6.33;;;5.07;;
8596;SDS011;4336;49.310;8.646;2022-09-29T15:07:50;6.03;;;5.43;;
8596;SDS011;4336;49.310;8.646;2022-09-29T15:10:29;9.57;;;5.63;;
8596;SDS011;4336;49.310;8.646;2022-09-29T15:15:54;6.33;;;5.67;;
8596;SDS011;4336;49.310;8.646;2022-09-29T15:20:59;6.57;;;6.07;;
8596;SDS011;4336;49.310;8.646;2022-09-29T15:26:44;8.13;;;7.50;;
8596;SDS011;4336;49.310;8.646;2022-09-29T15:29:13;7.23;;;6.63;;
8596;SDS011;4336;49.310;8.646;2022-09-29T15:31:42;6.10;;;5.43;;
8596;SDS011;4336;49.310;8.646;2022-09-29T15:34:11;7.93;;;7.13;;
8596;SDS011;4336;49.310;8.646;2022-09-29T15:36:41;7.57;;;6.97;;
8596;SDS011;4336;49.310;8.646;2022-09-29T15:39:21;9.30;;;6.80;;
8596;SDS011;4336;49.310;8.646;2022-09-29T15:42:16;7.63;;;6.90;;
8596;SDS011;4336;49.310;8.646;2022-09-29T15:44:49;6.17;;;5.17;;
8596;SDS011;4336;49.310;8.646;2022-09-29T15:47:26;6.80;;;5.90;;
8596;SDS011;4336;49.310;8.646;2022-09-29T15:49:52;8.23;;;7.50;;
8596;SDS011;4336;49.310;8.646;2022-09-29T15:52:18;7.53;;;6.83;;
8596;SDS011;4336;49.310;8.646;2022-09-29T15:54:47;5.93;;;5.43;;
8596;SDS011;4336;49.310;8.646;2022-09-29T15:57:41;7.27;;;6.53;;
8596;SDS011;4336;49.310;8.646;2022-09-29T16:05:26;8.13;;;7.33;;
8596;SDS011;4336;49.310;8.646;2022-09-29T16:08:03;6.23;;;5.73;;
8596;SDS011;4336;49.310;8.646;2022-09-29T16:10:48;9.63;;;6.93;;
8596;SDS011;4336;49.310;8.646;2022-09-29T16:13:20;6.90;;;6.17;;
8596;SDS011;4336;49.310;8.646;2022-09-29T16:15:49;7.00;;;6.40;;
8596;SDS011;4336;49.310;8.646;2022-09-29T16:18:21;9.03;;;7.23;;
8596;SDS011;4336;49.310;8.646;2022-09-29T16:20:48;8.53;;;7.00;;
8596;SDS011;4336;49.310;8.646;2022-09-29T16:28:39;7.97;;;6.50;;
8596;SDS011;4336;49.310;8.646;2022-09-29T16:31:25;11.40;;;8.30;;
8596;SDS011;4336;49.310;8.646;2022-09-29T16:33:53;9.87;;;6.80;;
8596;SDS011;4336;49.310;8.646;2022-09-29T16:36:24;10.63;;;8.83;;
8596;SDS011;4336;49.310;8.646;2022-09-29T16:38:51;12.27;;;9.10;;
8596;SDS011;4336;49.310;8.646;2022-09-29T16:41:22;10.90;;;9.53;;
8596;SDS011;4336;49.310;8.646;2022-09-29T16:46:33;10.90;;;6.33;;
8596;SDS011;4336;49.310;8.646;2022-09-29T16:49:25;7.77;;;7.07;;
8596;SDS011;4336;49.310;8.646;2022-09-29T16:52:10;8.83;;;6.90;;
8596;SDS011;4336;49.310;8.646;2022-09-29T16:54:41;8.23;;;7.17;;
8596;SDS011;4336;49.310;8.646;2022-09-29T16:57:29;11.00;;;8.30;;
8596;SDS011;4336;49.310;8.646;2022-09-29T16:59:59;9.87;;;6.33;;
8596;SDS011;4336;49.310;8.646;2022-09-29T17:02:28;8.20;;;5.73;;
8596;SDS011;4336;49.310;8.646;2022-09-29T17:04:55;7.10;;;5.80;;
8596;SDS011;4336;49.310;8.646;2022-09-29T17:07:22;7.37;;;6.03;;
8596;SDS011;4336;49.310;8.646;2022-09-29T17:09:50;6.30;;;5.70;;
8596;SDS011;4336;49.310;8.646;2022-09-29T17:12:18;6.90;;;6.20;;
8596;SDS011;4336;49.310;8.646;2022-09-29T17:14:44;7.27;;;6.50;;
8596;SDS011;4336;49.310;8.646;2022-09-29T17:17:19;6.40;;;5.90;;
8596;SDS011;4336;49.310;8.646;2022-09-29T17:19:47;7.97;;;5.90;;
8596;SDS011;4336;49.310;8.646;2022-09-29T17:22:19;6.53;;;5.93;;
8596;SDS011;4336;49.310;8.646;2022-09-29T17:24:47;9.10;;;6.43;;
8596;SDS011;4336;49.310;8.646;2022-09-29T17:27:13;7.30;;;6.20;;
8596;SDS011;4336;49.310;8.646;2022-09-29T17:29:58;6.70;;;6.10;;
8596;SDS011;4336;49.310;8.646;2022-09-29T17:32:24;6.70;;;6.00;;
8596;SDS011;4336;49.310;8.646;2022-09-29T17:34:51;6.10;;;5.60;;
8596;SDS011;4336;49.310;8.646;2022-09-29T17:37:17;6.83;;;6.23;;
8596;SDS011;4336;49.310;8.646;2022-09-29T17:39:43;6.57;;;5.97;;
8596;SDS011;4336;49.310;8.646;2022-09-29T17:42:10;5.63;;;5.23;;
8596;SDS011;4336;49.310;8.646;2022-09-29T17:44:37;7.67;;;6.13;;
8596;SDS011;4336;49.310;8.646;2022-09-29T17:47:13;9.30;;;6.90;;
8596;SDS011;4336;49.310;8.646;2022-09-29T17:49:40;10.73;;;7.83;;
8596;SDS011;4336;49.310;8.646;2022-09-29T17:52:07;7.00;;;6.30;;
8596;SDS011;4336;49.310;8.646;2022-09-29T17:54:36;7.93;;;5.93;;
8596;SDS011;4336;49.310;8.646;2022-09-29T17:57:03;11.07;;;6.60;;
8596;SDS011;4336;49.310;8.646;2022-09-29T17:59:29;6.83;;;6.23;;
8596;SDS011;4336;49.310;8.646;2022-09-29T18:01:59;7.37;;;6.67;;
8596;SDS011;4336;49.310;8.646;2022-09-29T18:04:25;10.07;;;7.30;;
8596;SDS011;4336;49.310;8.646;2022-09-29T18:06:51;10.17;;;7.27;;
8596;SDS011;4336;49.310;8.646;2022-09-29T18:09:17;10.40;;;8.30;;
8596;SDS011;4336;49.310;8.646;2022-09-29T18:11:44;8.23;;;6.00;;
8596;SDS011;4336;49.310;8.646;2022-09-29T18:14:12;6.93;;;6.23;;
8596;SDS011;4336;49.310;8.646;2022-09-29T18:16:38;7.40;;;6.60;;
8596;SDS011;4336;49.310;8.646;2022-09-29T18:19:05;7.20;;;6.50;;
8596;SDS011;4336;49.310;8.646;2022-09-29T18:21:41;7.03;;;6.33;;
8596;SDS011;4336;49.310;8.646;2022-09-29T18:24:07;6.67;;;6.07;;
8596;SDS011;4336;49.310;8.646;2022-09-29T18:26:34;7.73;;;6.93;;
8596;SDS011;4336;49.310;8.646;2022-09-29T18:29:07;37.40;;;7.50;;
8596;SDS011;4336;49.310;8.646;2022-09-29T18:31:34;8.13;;;7.33;;
8596;SDS011;4336;49.310;8.646;2022-09-29T18:34:00;7.47;;;6.77;;